createdAt,value
2024-03-10T00:02:00.052Z,64.08
2024-03-10T00:04:30.078Z,63.63
2024-03-10T00:06:59.913Z,63.44
2024-03-10T00:09:29.027Z,63.18
2024-03-10T00:11:57.439Z,62.64
2024-03-10T00:14:25.824Z,62.30
2024-03-10T00:16:54.037Z,62.27
2024-03-10T00:19:22.504Z,61.84
2024-03-10T00:21:50.692Z,61.39
2024-03-10T00:24:21.328Z,61.77
2024-03-10T00:26:50.915Z,61.87
2024-03-10T00:29:19.116Z,61.23
2024-03-10T00:31:47.317Z,60.79
2024-03-10T00:34:15.668Z,60.95
2024-03-10T00:36:43.765Z,60.93
2024-03-10T00:39:11.961Z,60.77
2024-03-10T00:41:41.074Z,60.94
2024-03-10T00:44:09.290Z,61.29
2024-03-10T00:46:37.546Z,61.13
2024-03-10T00:49:05.805Z,60.88
2024-03-10T00:51:36.340Z,61.08
2024-03-10T00:54:05.002Z,61.65
2024-03-10T00:56:33.197Z,61.43
2024-03-10T00:59:01.397Z,62.15
2024-03-10T01:01:30.299Z,62.59
2024-03-10T01:03:58.408Z,62.58
2024-03-10T01:06:26.812Z,62.73
2024-03-10T01:08:54.912Z,63.12
2024-03-10T01:11:23.079Z,62.66
2024-03-10T01:13:51.915Z,62.44
2024-03-10T01:16:20.068Z,63.14
2024-03-10T01:18:48.493Z,63.17
2024-03-10T01:21:16.575Z,62.86
2024-03-10T01:23:44.605Z,63.01
2024-03-10T01:26:12.821Z,62.59
2024-03-10T01:28:41.104Z,62.35
2024-03-10T01:31:10.855Z,62.52
2024-03-10T01:33:39.128Z,62.58
2024-03-10T01:36:08.102Z,62.42
2024-03-10T01:38:36.197Z,62.80
2024-03-10T01:41:04.560Z,62.37
2024-03-10T01:43:32.795Z,62.70
2024-03-10T01:46:08.976Z,62.97
2024-03-10T01:48:41.683Z,62.64
2024-03-10T01:51:10.285Z,62.55
2024-03-10T01:53:38.595Z,62.71
2024-03-10T01:56:08.396Z,63.43
2024-03-10T01:58:36.751Z,63.11
2024-03-10T02:01:05.038Z,63.00
2024-03-10T02:03:33.541Z,63.23
2024-03-10T02:06:01.727Z,63.58
2024-03-10T02:08:29.973Z,63.73
2024-03-10T02:10:58.240Z,63.76
2024-03-10T02:13:26.582Z,64.00
2024-03-10T02:16:04.842Z,63.91
2024-03-10T02:18:35.668Z,63.49
2024-03-10T02:21:04.119Z,63.05
2024-03-10T02:23:36.310Z,62.69
2024-03-10T02:26:05.082Z,62.33
2024-03-10T02:28:36.939Z,61.71
2024-03-10T02:31:25.049Z,61.89
2024-03-10T02:34:11.802Z,61.48
2024-03-10T02:36:58.913Z,61.55
2024-03-10T02:39:45.549Z,61.28
2024-03-10T02:42:32.187Z,61.21
2024-03-10T02:45:18.967Z,62.15
2024-03-10T02:47:47.422Z,61.65
2024-03-10T02:50:15.621Z,61.65
2024-03-10T02:52:43.690Z,61.54
2024-03-10T02:55:13.072Z,61.21
2024-03-10T02:57:41.275Z,61.03
2024-03-10T03:00:14.023Z,60.82
2024-03-10T03:02:42.062Z,61.07
2024-03-10T03:05:10.345Z,60.69
2024-03-10T03:07:38.487Z,60.39
2024-03-10T03:10:07.394Z,60.35
2024-03-10T03:12:37.018Z,60.16
2024-03-10T03:15:05.916Z,59.92
2024-03-10T03:17:34.077Z,59.69
2024-03-10T03:20:02.385Z,59.51
2024-03-10T03:22:30.693Z,59.37
2024-03-10T03:24:58.848Z,59.26
2024-03-10T03:27:26.877Z,59.23
2024-03-10T03:29:55.993Z,58.99
2024-03-10T03:32:24.087Z,58.89
2024-03-10T03:34:52.153Z,59.01
2024-03-10T03:37:20.241Z,58.83
2024-03-10T03:39:48.438Z,58.80
2024-03-10T03:42:16.786Z,58.81
2024-03-10T03:44:45.576Z,58.68
2024-03-10T03:47:13.735Z,58.87
2024-03-10T03:49:41.859Z,58.62
2024-03-10T03:52:10.026Z,58.75
2024-03-10T03:54:40.725Z,58.78
2024-03-10T03:57:08.813Z,58.78
2024-03-10T03:59:40.309Z,58.92
2024-03-10T04:02:08.718Z,59.41
2024-03-10T04:04:36.943Z,59.35
2024-03-10T04:07:05.384Z,59.16
2024-03-10T04:09:33.492Z,59.36
2024-03-10T04:12:01.943Z,59.71
2024-03-10T04:14:30.148Z,59.60
2024-03-10T04:16:58.712Z,59.75
2024-03-10T04:19:26.779Z,59.63
2024-03-10T04:21:55.712Z,59.60
2024-03-10T04:24:24.098Z,59.33
2024-03-10T04:26:52.276Z,59.43
2024-03-10T04:29:20.928Z,59.30
2024-03-10T04:31:49.662Z,59.47
2024-03-10T04:34:17.805Z,59.48
2024-03-10T04:36:45.914Z,59.34
2024-03-10T04:39:14.103Z,59.46
2024-03-10T04:41:42.164Z,59.66
2024-03-10T04:44:15.973Z,59.40
2024-03-10T04:46:44.173Z,59.60
2024-03-10T04:49:13.030Z,59.90
2024-03-10T04:51:42.285Z,61.15
2024-03-10T04:54:10.949Z,60.93
2024-03-10T04:56:39.160Z,60.54
2024-03-10T04:59:07.539Z,60.28
2024-03-10T05:01:35.753Z,60.02
2024-03-10T05:04:03.952Z,59.89
2024-03-10T05:06:32.022Z,59.76
2024-03-10T05:09:00.119Z,59.63
2024-03-10T05:11:28.405Z,59.60
2024-03-10T05:13:56.897Z,59.84
2024-03-10T05:16:25.051Z,59.88
2024-03-10T05:18:55.005Z,59.65
2024-03-10T05:21:26.239Z,59.53
2024-03-10T05:23:57.398Z,59.95
2024-03-10T05:26:25.902Z,60.20
2024-03-10T05:28:54.139Z,59.88
2024-03-10T05:31:27.532Z,59.75
2024-03-10T05:33:58.900Z,59.83
2024-03-10T05:36:27.971Z,59.96
2024-03-10T05:38:56.559Z,59.79
2024-03-10T05:41:24.818Z,59.79
2024-03-10T05:43:53.122Z,59.59
2024-03-10T05:46:21.250Z,59.32
2024-03-10T05:48:49.452Z,59.33
2024-03-10T05:51:17.640Z,59.28
2024-03-10T05:53:46.954Z,58.99
2024-03-10T05:56:15.150Z,58.98
2024-03-10T05:58:44.188Z,58.88
2024-03-10T06:01:13.437Z,58.89
2024-03-10T06:03:41.541Z,58.87
2024-03-10T06:06:10.011Z,59.10
2024-03-10T06:08:38.140Z,58.95
2024-03-10T06:11:06.286Z,59.18
2024-03-10T06:13:34.607Z,59.26
2024-03-10T06:16:04.046Z,59.08
2024-03-10T06:18:54.770Z,58.97
2024-03-10T06:21:46.401Z,59.47
2024-03-10T06:24:33.434Z,59.34
2024-03-10T06:27:02.147Z,59.24
2024-03-10T06:29:30.573Z,59.30
2024-03-10T06:32:00.241Z,59.16
2024-03-10T06:34:28.611Z,59.14
2024-03-10T06:36:56.814Z,59.05
2024-03-10T06:39:25.823Z,58.73
2024-03-10T06:41:53.966Z,58.82
2024-03-10T06:44:23.273Z,58.62
2024-03-10T06:46:51.869Z,58.24
2024-03-10T06:49:20.003Z,57.62
2024-03-10T06:51:48.655Z,57.71
2024-03-10T06:54:16.728Z,57.72
2024-03-10T06:56:44.883Z,57.56
2024-03-10T06:59:14.323Z,57.04
2024-03-10T07:01:46.147Z,56.86
2024-03-10T07:04:17.535Z,56.75
2024-03-10T07:06:47.453Z,57.05
2024-03-10T07:09:16.978Z,56.36
2024-03-10T07:11:45.412Z,55.03
2024-03-10T07:14:15.680Z,54.96
2024-03-10T07:16:50.579Z,53.84
2024-03-10T07:19:18.745Z,53.24
2024-03-10T07:21:46.833Z,53.05
2024-03-10T07:24:14.990Z,52.72
2024-03-10T07:26:43.329Z,52.96
2024-03-10T07:29:12.342Z,50.58
2024-03-10T07:31:40.397Z,51.23
2024-03-10T07:34:08.720Z,51.13
2024-03-10T07:36:37.208Z,50.13
2024-03-10T07:39:08.885Z,50.24
2024-03-10T07:41:37.182Z,50.30
2024-03-10T07:44:05.540Z,50.32
2024-03-10T07:46:33.880Z,48.96
2024-03-10T07:49:03.794Z,48.43
2024-03-10T07:51:32.449Z,47.15
2024-03-10T07:54:01.893Z,46.28
2024-03-10T07:56:32.418Z,44.04
2024-03-10T07:59:02.134Z,45.24
2024-03-10T08:01:30.625Z,45.32
2024-03-10T08:03:58.720Z,43.26
2024-03-10T08:06:27.170Z,41.13
2024-03-10T08:08:55.306Z,40.85
2024-03-10T08:11:24.025Z,41.75
2024-03-10T08:13:52.485Z,40.99
2024-03-10T08:16:21.216Z,41.22
2024-03-10T08:18:51.158Z,42.10
2024-03-10T08:21:24.170Z,40.41
2024-03-10T08:23:52.298Z,40.26
2024-03-10T08:26:20.736Z,40.86
2024-03-10T08:28:48.809Z,40.68
2024-03-10T08:31:17.858Z,41.11
2024-03-10T08:33:46.055Z,40.71
2024-03-10T08:36:14.191Z,40.68
2024-03-10T08:38:42.416Z,40.53
2024-03-10T08:41:10.823Z,39.43
2024-03-10T08:43:39.088Z,39.19
2024-03-10T08:46:08.097Z,38.85
2024-03-10T08:48:37.029Z,38.35
2024-03-10T08:51:07.279Z,36.19
2024-03-10T08:53:35.904Z,36.81
2024-03-10T08:56:06.123Z,35.83
2024-03-10T08:58:34.667Z,35.93
2024-03-10T09:01:05.983Z,34.91
2024-03-10T09:03:34.284Z,34.10
2024-03-10T09:06:02.505Z,33.88
2024-03-10T09:08:30.922Z,34.08
2024-03-10T09:11:04.541Z,34.42
2024-03-10T09:13:34.699Z,34.69
2024-03-10T09:16:02.882Z,34.87
2024-03-10T09:18:31.129Z,34.54
2024-03-10T09:20:59.385Z,35.30
2024-03-10T09:23:29.205Z,35.06
2024-03-10T09:25:59.256Z,34.06
2024-03-10T09:28:27.502Z,34.42
2024-03-10T09:30:58.586Z,33.08
2024-03-10T09:33:27.149Z,33.18
2024-03-10T09:35:59.334Z,34.16
2024-03-10T09:38:27.605Z,34.98
2024-03-10T09:40:57.240Z,35.44
2024-03-10T09:43:30.521Z,35.76
2024-03-10T09:45:59.152Z,36.17
2024-03-10T09:48:27.327Z,36.41
2024-03-10T09:50:55.626Z,36.94
2024-03-10T09:53:25.095Z,37.04
2024-03-10T09:55:54.245Z,36.69
2024-03-10T09:58:40.322Z,37.30
2024-03-10T10:01:13.669Z,37.50
2024-03-10T10:03:46.423Z,37.37
2024-03-10T10:06:15.141Z,37.37
2024-03-10T10:08:43.701Z,36.97
2024-03-10T10:11:14.690Z,37.33
2024-03-10T10:13:43.839Z,37.32
2024-03-10T10:16:12.470Z,37.62
2024-03-10T10:18:51.144Z,37.91
2024-03-10T10:21:28.317Z,38.55
2024-03-10T10:23:59.064Z,38.64
2024-03-10T10:26:27.104Z,38.62
2024-03-10T10:29:11.098Z,38.37
2024-03-10T10:31:39.864Z,38.55
2024-03-10T10:34:08.555Z,38.43
2024-03-10T10:36:36.908Z,38.62
2024-03-10T10:39:10.224Z,38.46
2024-03-10T10:41:39.462Z,38.32
2024-03-10T10:44:08.565Z,37.80
2024-03-10T10:46:37.815Z,37.88
2024-03-10T10:49:06.325Z,37.90
2024-03-10T10:51:37.407Z,37.63
2024-03-10T10:54:10.720Z,37.55
2024-03-10T10:56:39.728Z,36.70
2024-03-10T10:59:12.035Z,36.90
2024-03-10T11:01:41.805Z,36.37
2024-03-10T11:04:13.428Z,35.51
2024-03-10T11:06:42.477Z,34.80
2024-03-10T11:09:16.251Z,35.28
2024-03-10T11:11:46.761Z,35.56
2024-03-10T11:14:17.517Z,35.55
2024-03-10T11:16:46.046Z,35.52
2024-03-10T11:19:22.485Z,35.22
2024-03-10T11:21:51.634Z,33.89
2024-03-10T11:24:23.302Z,33.53
2024-03-10T11:27:13.162Z,33.81
2024-03-10T11:29:43.077Z,33.66
2024-03-10T11:32:33.076Z,34.39
2024-03-10T11:35:08.525Z,33.90
2024-03-10T11:37:38.137Z,34.09
2024-03-10T11:40:16.896Z,34.20
2024-03-10T11:42:46.523Z,33.50
2024-03-10T11:45:14.812Z,32.20
2024-03-10T11:47:45.500Z,31.92
2024-03-10T11:50:13.813Z,30.80
2024-03-10T11:52:41.883Z,31.05
2024-03-10T11:55:14.788Z,32.73
2024-03-10T11:57:42.963Z,32.96
2024-03-10T12:00:24.682Z,33.75
2024-03-10T12:02:54.720Z,34.89
2024-03-10T12:05:24.142Z,35.97
2024-03-10T12:07:56.083Z,36.18
2024-03-10T12:10:29.641Z,36.03
2024-03-10T12:12:59.134Z,34.20
2024-03-10T12:15:28.020Z,32.34
2024-03-10T12:17:56.531Z,30.94
2024-03-10T12:20:25.360Z,31.04
2024-03-10T12:22:54.440Z,30.57
2024-03-10T12:25:22.854Z,29.59
2024-03-10T12:27:51.367Z,29.32
2024-03-10T12:30:22.191Z,27.72
2024-03-10T12:32:53.848Z,28.10
2024-03-10T12:35:24.877Z,26.04
2024-03-10T12:37:53.603Z,25.28
2024-03-10T12:40:23.208Z,25.27
2024-03-10T12:42:52.948Z,25.42
2024-03-10T12:45:22.200Z,26.48
2024-03-10T12:47:54.995Z,25.94
2024-03-10T12:50:23.491Z,26.20
2024-03-10T12:52:51.877Z,27.09
2024-03-10T12:55:20.213Z,28.12
2024-03-10T12:57:48.325Z,28.21
2024-03-10T13:00:25.367Z,29.39
2024-03-10T13:02:56.354Z,30.68
2024-03-10T13:05:25.234Z,31.64
2024-03-10T13:07:53.317Z,32.09
2024-03-10T13:10:21.860Z,32.55
2024-03-10T13:12:50.283Z,32.53
2024-03-10T13:15:18.710Z,32.94
2024-03-10T13:17:47.147Z,33.13
2024-03-10T13:20:18.279Z,33.35
2024-03-10T13:22:47.104Z,33.67
2024-03-10T13:25:15.898Z,34.02
2024-03-10T13:27:44.022Z,34.32
2024-03-10T13:30:15.886Z,34.88
2024-03-10T13:32:44.259Z,35.13
2024-03-10T13:35:15.164Z,35.14
2024-03-10T13:37:43.440Z,34.87
2024-03-10T13:40:12.962Z,34.30
2024-03-10T13:42:42.440Z,33.48
2024-03-10T13:45:19.652Z,32.70
2024-03-10T13:47:51.685Z,31.63
2024-03-10T13:50:25.425Z,31.37
2024-03-10T13:52:53.675Z,31.49
2024-03-10T13:55:22.065Z,31.22
2024-03-10T13:57:52.921Z,31.43
2024-03-10T14:00:23.111Z,31.79
2024-03-10T14:02:51.224Z,31.84
2024-03-10T14:05:20.617Z,32.29
2024-03-10T14:07:49.152Z,33.27
2024-03-10T14:10:20.656Z,33.84
2024-03-10T14:12:48.832Z,34.21
2024-03-10T14:15:17.258Z,34.64
2024-03-10T14:17:46.242Z,34.95
2024-03-10T14:20:16.559Z,34.96
2024-03-10T14:22:51.845Z,35.22
2024-03-10T14:25:20.211Z,35.54
2024-03-10T14:27:52.735Z,36.76
2024-03-10T14:30:24.077Z,38.03
2024-03-10T14:32:54.944Z,38.24
2024-03-10T14:35:25.974Z,38.25
2024-03-10T14:37:56.292Z,38.86
2024-03-10T14:40:24.610Z,39.08
2024-03-10T14:42:55.304Z,39.81
2024-03-10T14:45:24.677Z,39.32
2024-03-10T14:47:53.713Z,39.71
2024-03-10T14:50:26.429Z,39.97
2024-03-10T14:52:56.597Z,40.21
2024-03-10T14:55:25.781Z,40.62
2024-03-10T14:57:54.363Z,40.66
2024-03-10T15:00:36.185Z,40.70
2024-03-10T15:03:07.571Z,40.72
2024-03-10T15:05:37.617Z,40.62
2024-03-10T15:08:06.939Z,41.02
2024-03-10T15:10:36.673Z,40.86
2024-03-10T15:13:10.136Z,40.78
2024-03-10T15:15:40.132Z,41.42
2024-03-10T15:18:10.661Z,41.36
2024-03-10T15:20:44.112Z,41.69
2024-03-10T15:23:13.275Z,41.53
2024-03-10T15:25:42.234Z,42.02
2024-03-10T15:28:11.237Z,42.29
2024-03-10T15:30:42.546Z,41.87
2024-03-10T15:33:12.165Z,41.96
2024-03-10T15:35:43.120Z,41.99
2024-03-10T15:38:11.783Z,42.42
2024-03-10T15:40:40.131Z,42.59
2024-03-10T15:43:10.770Z,42.71
2024-03-10T15:45:43.927Z,42.76
2024-03-10T15:48:13.779Z,42.82
2024-03-10T15:50:44.012Z,42.46
2024-03-10T15:53:12.750Z,42.81
2024-03-10T15:55:41.244Z,42.70
2024-03-10T15:58:11.389Z,42.83
2024-03-10T16:00:39.945Z,43.24
2024-03-10T16:03:17.376Z,43.01
2024-03-10T16:05:56.683Z,42.98
2024-03-10T16:08:26.712Z,43.26
2024-03-10T16:10:55.016Z,43.69
2024-03-10T16:13:26.711Z,43.87
2024-03-10T16:15:55.641Z,44.03
2024-03-10T16:18:24.568Z,43.68
2024-03-10T16:20:52.985Z,43.64
2024-03-10T16:23:22.926Z,43.61
2024-03-10T16:25:51.200Z,43.46
2024-03-10T16:28:19.489Z,43.96
2024-03-10T16:30:47.623Z,44.40
2024-03-10T16:33:15.839Z,44.17
2024-03-10T16:35:44.075Z,44.34
2024-03-10T16:38:12.287Z,44.50
2024-03-10T16:40:40.479Z,44.81
2024-03-10T16:43:08.693Z,44.77
2024-03-10T16:45:36.902Z,44.70
2024-03-10T16:48:05.448Z,45.08
2024-03-10T16:50:34.788Z,44.91
2024-03-10T16:53:07.543Z,44.91
2024-03-10T16:55:41.502Z,45.23
2024-03-10T16:58:10.631Z,45.48
2024-03-10T17:00:39.661Z,45.66
2024-03-10T17:03:12.895Z,46.03
2024-03-10T17:05:41.291Z,46.19
2024-03-10T17:08:12.675Z,46.66
2024-03-10T17:10:41.112Z,46.73
2024-03-10T17:13:09.896Z,47.05
2024-03-10T17:15:43.466Z,47.32
2024-03-10T17:18:14.210Z,47.47
2024-03-10T17:20:42.741Z,47.56
2024-03-10T17:23:13.868Z,47.72
2024-03-10T17:25:42.261Z,47.85
2024-03-10T17:28:10.607Z,48.11
2024-03-10T17:30:38.879Z,48.23
2024-03-10T17:33:07.142Z,48.27
2024-03-10T17:35:35.697Z,48.49
2024-03-10T17:38:05.515Z,48.52
2024-03-10T17:40:34.046Z,48.66
2024-03-10T17:43:02.220Z,48.87
2024-03-10T17:45:30.392Z,48.98
2024-03-10T17:48:00.585Z,49.16
2024-03-10T17:50:31.005Z,49.19
2024-03-10T17:52:59.220Z,49.18
2024-03-10T17:55:27.507Z,49.21
2024-03-10T17:57:55.668Z,49.48
2024-03-10T18:00:24.172Z,49.18
2024-03-10T18:02:52.617Z,49.32
2024-03-10T18:05:21.495Z,49.02
2024-03-10T18:07:52.906Z,48.89
2024-03-10T18:10:22.935Z,48.85
2024-03-10T18:12:52.470Z,48.71
2024-03-10T18:15:21.920Z,48.57
2024-03-10T18:17:50.530Z,48.25
2024-03-10T18:20:21.269Z,48.47
2024-03-10T18:22:49.836Z,48.78
2024-03-10T18:25:18.174Z,48.75
2024-03-10T18:27:46.537Z,48.52
2024-03-10T18:30:15.801Z,48.53
2024-03-10T18:32:44.360Z,48.78
2024-03-10T18:35:14.267Z,48.98
2024-03-10T18:37:43.481Z,48.93
2024-03-10T18:40:12.257Z,49.35
2024-03-10T18:42:41.759Z,49.14
2024-03-10T18:45:10.700Z,49.26
2024-03-10T18:47:38.997Z,49.08
2024-03-10T18:50:11.640Z,48.97
2024-03-10T18:52:43.684Z,48.88
2024-03-10T18:55:14.657Z,48.96
2024-03-10T18:57:42.976Z,48.98
2024-03-10T19:00:13.352Z,48.97
2024-03-10T19:02:42.809Z,49.27
2024-03-10T19:05:12.631Z,49.39
2024-03-10T19:07:42.342Z,49.00
2024-03-10T19:10:11.390Z,48.86
2024-03-10T19:12:46.326Z,49.07
2024-03-10T19:15:15.469Z,48.95
2024-03-10T19:17:44.647Z,49.08
2024-03-10T19:20:19.374Z,48.93
2024-03-10T19:22:55.990Z,48.91
2024-03-10T19:25:25.004Z,48.75
2024-03-10T19:27:53.366Z,48.88
2024-03-10T19:30:21.670Z,48.76
2024-03-10T19:32:50.878Z,48.90
2024-03-10T19:35:20.653Z,48.90
2024-03-10T19:37:49.487Z,48.71
2024-03-10T19:40:20.662Z,48.18
2024-03-10T19:42:50.027Z,48.18
2024-03-10T19:45:20.956Z,48.06
2024-03-10T19:47:49.486Z,47.71
2024-03-10T19:50:17.981Z,47.77
2024-03-10T19:52:49.393Z,47.75
2024-03-10T19:55:17.609Z,47.87
2024-03-10T19:57:45.908Z,47.79
2024-03-10T20:00:15.940Z,47.74
2024-03-10T20:02:45.444Z,47.53
2024-03-10T20:05:16.931Z,47.39
2024-03-10T20:07:49.605Z,47.16
2024-03-10T20:10:21.142Z,47.28
2024-03-10T20:12:53.011Z,47.37
2024-03-10T20:15:21.269Z,47.57
2024-03-10T20:17:50.919Z,47.55
2024-03-10T20:20:26.590Z,47.61
2024-03-10T20:23:01.898Z,47.93
2024-03-10T20:25:32.089Z,47.82
2024-03-10T20:28:00.802Z,47.66
2024-03-10T20:30:32.255Z,47.43
2024-03-10T20:33:00.608Z,47.27
2024-03-10T20:35:29.002Z,47.12
2024-03-10T20:37:57.139Z,47.26
2024-03-10T20:40:25.306Z,47.04
2024-03-10T20:42:53.361Z,47.32
2024-03-10T20:45:21.575Z,47.31
2024-03-10T20:47:50.593Z,47.10
2024-03-10T20:50:24.520Z,46.95
2024-03-10T20:52:53.982Z,46.89
2024-03-10T20:55:22.751Z,46.99
2024-03-10T20:57:51.119Z,46.64
2024-03-10T21:00:23.782Z,46.68
2024-03-10T21:02:52.733Z,46.63
2024-03-10T21:05:22.795Z,46.56
2024-03-10T21:07:53.408Z,46.64
2024-03-10T21:10:23.450Z,46.74
2024-03-10T21:12:52.517Z,47.13
2024-03-10T21:15:23.808Z,47.77
2024-03-10T21:17:53.535Z,48.38
2024-03-10T21:20:24.184Z,48.63
2024-03-10T21:22:53.418Z,48.69
2024-03-10T21:25:24.251Z,49.73
2024-03-10T21:27:52.394Z,49.63
2024-03-10T21:30:20.600Z,50.32
2024-03-10T21:32:49.026Z,50.61
2024-03-10T21:35:19.335Z,51.47
2024-03-10T21:37:48.883Z,52.52
2024-03-10T21:40:17.757Z,52.49
2024-03-10T21:42:46.000Z,53.08
2024-03-10T21:45:14.352Z,53.39
2024-03-10T21:47:42.952Z,52.73
2024-03-10T21:50:11.897Z,53.08
2024-03-10T21:52:40.410Z,53.56
2024-03-10T21:55:08.931Z,53.45
2024-03-10T21:57:37.121Z,54.55
2024-03-10T22:00:15.708Z,54.25
2024-03-10T22:02:45.005Z,54.29
2024-03-10T22:05:13.655Z,53.84
2024-03-10T22:07:43.031Z,54.13
2024-03-10T22:10:11.394Z,54.28
2024-03-10T22:12:39.575Z,54.14
2024-03-10T22:15:15.608Z,53.71
2024-03-10T22:17:45.011Z,53.72
2024-03-10T22:20:15.426Z,53.82
2024-03-10T22:22:44.562Z,54.14
2024-03-10T22:25:15.296Z,54.03
2024-03-10T22:27:44.717Z,54.42
2024-03-10T22:30:16.397Z,53.71
2024-03-10T22:32:48.549Z,53.55
2024-03-10T22:35:17.185Z,54.27
2024-03-10T22:37:49.488Z,53.95
2024-03-10T22:40:20.242Z,53.76
2024-03-10T22:42:50.674Z,53.48
2024-03-10T22:45:29.180Z,55.14
2024-03-10T22:48:00.900Z,54.60
2024-03-10T22:50:30.170Z,54.26
2024-03-10T22:53:01.774Z,54.83
2024-03-10T22:55:30.493Z,55.55
2024-03-10T22:57:58.772Z,55.14
2024-03-10T23:00:26.977Z,55.18
2024-03-10T23:02:56.906Z,54.86
2024-03-10T23:05:26.999Z,55.31
2024-03-10T23:08:05.610Z,55.81
2024-03-10T23:10:36.077Z,56.66
2024-03-10T23:13:05.381Z,56.87
2024-03-10T23:15:34.446Z,58.16
2024-03-10T23:18:02.822Z,59.79
2024-03-10T23:20:31.735Z,60.27
2024-03-10T23:23:01.385Z,59.27
2024-03-10T23:25:31.565Z,59.91
2024-03-10T23:27:59.980Z,60.68
2024-03-10T23:30:28.283Z,60.15
2024-03-10T23:32:57.147Z,59.95
2024-03-10T23:35:26.933Z,59.80
2024-03-10T23:37:55.239Z,58.01
2024-03-10T23:40:26.331Z,56.49
2024-03-10T23:42:56.699Z,56.85
2024-03-10T23:45:24.995Z,56.14
2024-03-10T23:47:53.808Z,55.32
2024-03-10T23:50:22.334Z,55.08
2024-03-10T23:52:53.920Z,55.28
2024-03-10T23:55:23.684Z,55.66
2024-03-10T23:57:54.211Z,56.06
